About

Name: Worland Airport
Identifier:  WRL/KWRL
Local Time:  26. Jan 21:44 MST

Location

Worland Airport

Statistics

Flights Per Day:
0 Flights
Distance: 531km (330mi)
Flights Delayed:
0% (0 Flights/Day Delayed)
Average Delay: 23 minutes

Current Weather

 0 C (Humidity: 74%)
  3kt (5km/h / 3mph) from 60°
  Few clouds at 9,000 feet (2,743 meter)
  16km (10 mi.)
 METAR KWRL 270353Z AUTO 06003KT 10SM FEW090 00/M04 A2990 RMK AO2 SLP161 T00001044

Claim Compensation

Claim compensation for your flight delay or cancellation
Flight delays happen, but that doesn’t mean you have to accept them. You may be entitled to as much as €600/$700 in compensation if your flight has been delayed, canceled or overbooked within the last three years.

Current Delays

Departures

N/A

Arrivals

N/A

Destinations

Map

Top Destinations

Airport Flights
per week
Seats
per week
  Denver (DEN) 0 - 0 0

Airlines & Planes

Top Airlines

Airline Flights
per day
Seats
per day
Bemidji Airlines 0 -

Top Models

model Flights seats
Beech 65 Queen Air 0.0/day - 0